Time;durP1;ratioP1;P1;durP2;ratioP2;P2;SDS_P1;SDS_P2;PMS_P1;PMS_P2;Temp;Humidity;BMP_temperature;BMP_pressure;BME280_temperature;BME280_humidity;BME280_pressure;Samples;Min_cycle;Max_cycle;Signal;HPM_P1;HPM_P2
2023/04/22 00:00:37;;;;;;;6.35;4.75;;;;;;;8.31;64.04;94487.22;5053388;28;20028;-74
2023/04/22 00:03:02;;;;;;;7.25;5.28;;;;;;;8.28;64.03;94487.47;5053546;28;20525;-73
2023/04/22 00:05:28;;;;;;;6.35;4.78;;;;;;;8.21;64.07;94484.50;5053394;28;20115;-74
2023/04/22 00:07:53;;;;;;;5.70;4.85;;;;;;;8.23;63.94;94481.81;5057086;28;20041;-74
2023/04/22 00:10:19;;;;;;;6.80;5.50;;;;;;;8.14;64.34;94473.00;5049975;28;20492;-74
2023/04/22 00:12:44;;;;;;;6.55;5.07;;;;;;;8.20;64.03;94489.81;5066650;28;20041;-73
2023/04/22 00:15:11;;;;;;;7.25;4.85;;;;;;;7.91;64.40;94445.53;5050085;28;20136;-73
2023/04/22 00:17:36;;;;;;;7.93;4.93;;;;;;;8.07;64.43;94490.75;5067687;28;20418;-74
2023/04/22 00:20:02;;;;;;;7.30;4.93;;;;;;;8.00;64.67;94483.63;5069734;28;20093;-74
2023/04/22 00:22:28;;;;;;;6.50;4.82;;;;;;;8.04;64.86;94483.25;5070012;28;20039;-74
2023/04/22 00:24:53;;;;;;;7.28;4.80;;;;;;;7.99;65.06;94469.03;5065799;28;20037;-74
2023/04/22 00:27:19;;;;;;;6.63;5.30;;;;;;;7.99;64.93;94477.59;5049779;28;20025;-74
2023/04/22 00:29:44;;;;;;;6.40;4.90;;;;;;;8.06;64.90;94486.53;5049710;28;20071;-74
2023/04/22 00:32:09;;;;;;;6.00;4.95;;;;;;;8.05;64.65;94477.16;5049497;28;20043;-74
2023/04/22 00:34:35;;;;;;;7.28;5.15;;;;;;;7.99;64.41;94469.84;5033158;28;20036;-74
2023/04/22 00:37:00;;;;;;;6.10;5.00;;;;;;;7.88;64.61;94456.09;5051163;28;20032;-74
2023/04/22 00:39:26;;;;;;;8.10;5.43;;;;;;;7.94;64.96;94469.41;5049650;28;20213;-74
2023/04/22 00:41:52;;;;;;;5.57;4.72;;;;;;;7.86;64.94;94474.34;5050936;28;20431;-74
2023/04/22 00:44:17;;;;;;;5.60;4.53;;;;;;;7.73;64.80;94447.78;5063571;28;20423;-74
2023/04/22 00:46:43;;;;;;;7.55;4.90;;;;;;;7.75;64.82;94451.91;5052898;28;20029;-74
2023/04/22 00:49:08;;;;;;;8.27;5.13;;;;;;;7.64;64.53;94445.91;5036244;28;20037;-73
2023/04/22 00:51:34;;;;;;;6.90;5.20;;;;;;;7.81;64.92;94479.03;5070756;28;20437;-75
2023/04/22 00:54:03;;;;;;;5.97;4.68;;;;;;;7.87;65.05;94475.16;5068991;28;20032;-74
2023/04/22 00:56:29;;;;;;;7.18;5.22;;;;;;;7.75;65.33;94477.75;5070764;28;20028;-74
2023/04/22 00:58:54;;;;;;;6.78;5.18;;;;;;;7.80;65.09;94485.13;5069320;28;20032;-74
2023/04/22 01:01:20;;;;;;;6.00;4.53;;;;;;;7.63;65.32;94472.69;5067122;28;20115;-73
2023/04/22 01:03:47;;;;;;;7.95;5.07;;;;;;;7.79;65.29;94489.50;5052822;28;20037;-74
2023/04/22 01:06:12;;;;;;;7.35;4.85;;;;;;;7.59;65.62;94480.69;5052636;28;20072;-74
2023/04/22 01:08:37;;;;;;;7.40;4.78;;;;;;;7.46;66.28;94482.56;5069373;28;20032;-74
2023/04/22 01:11:04;;;;;;;6.93;5.28;;;;;;;7.66;65.93;94498.31;5052031;28;20043;-73
2023/04/22 01:13:29;;;;;;;8.85;5.30;;;;;;;7.62;66.34;94479.63;5069223;28;20029;-73
2023/04/22 01:15:55;;;;;;;6.28;4.70;;;;;;;7.68;66.01;94486.91;5069134;28;20086;-73
2023/04/22 01:18:20;;;;;;;5.75;4.70;;;;;;;7.53;66.30;94478.56;5069251;28;20025;-74
2023/04/22 01:20:46;;;;;;;5.95;5.05;;;;;;;7.50;66.15;94476.22;5056288;28;20029;-73
2023/04/22 01:23:20;;;;;;;6.47;5.03;;;;;;;7.56;66.46;94493.84;5052494;28;20098;-73
2023/04/22 01:25:46;;;;;;;7.30;5.43;;;;;;;7.53;66.26;94493.25;5052437;28;20033;-73
2023/04/22 01:28:12;;;;;;;8.27;5.57;;;;;;;7.44;66.03;94478.44;5051537;28;20068;-74
2023/04/22 01:30:38;;;;;;;7.57;5.30;;;;;;;7.50;66.33;94496.09;5065322;28;20057;-74
2023/04/22 01:33:04;;;;;;;7.35;5.35;;;;;;;7.37;66.71;94494.41;5053300;28;20491;-74
2023/04/22 01:35:35;;;;;;;6.47;5.07;;;;;;;7.34;66.63;94504.16;5049104;28;20024;-74
2023/04/22 01:38:04;;;;;;;7.03;5.18;;;;;;;7.10;66.39;94463.72;5071062;28;20041;-74
2023/04/22 01:40:32;;;;;;;7.28;5.20;;;;;;;7.22;66.53;94493.00;5039888;28;20460;-74
2023/04/22 01:42:58;;;;;;;6.38;5.13;;;;;;;7.19;66.80;94503.56;5056033;28;20038;-74
2023/04/22 01:45:24;;;;;;;7.10;5.47;;;;;;;7.22;66.29;94484.41;5056173;28;20025;-74
2023/04/22 01:47:50;;;;;;;7.82;5.55;;;;;;;7.32;66.71;94495.69;5072019;28;20055;-75
2023/04/22 01:50:15;;;;;;;7.40;5.50;;;;;;;7.30;66.33;94477.72;5072665;28;20052;-75
2023/04/22 01:52:41;;;;;;;6.55;5.38;;;;;;;7.39;66.30;94486.56;5056100;28;20410;-75
2023/04/22 01:55:07;;;;;;;6.88;5.18;;;;;;;7.29;66.69;94490.75;5038662;28;20429;-74
2023/04/22 01:57:32;;;;;;;6.93;5.18;;;;;;;7.24;66.42;94472.19;5036844;28;20124;-75
2023/04/22 01:59:58;;;;;;;7.90;5.47;;;;;;;7.25;66.48;94476.44;5055983;28;20032;-74
2023/04/22 02:02:24;;;;;;;7.07;5.03;;;;;;;7.28;66.31;94473.63;5055659;28;20048;-74
2023/04/22 02:04:49;;;;;;;6.85;5.20;;;;;;;7.33;66.13;94474.91;5071048;28;20034;-74
2023/04/22 02:07:15;;;;;;;6.78;5.00;;;;;;;7.39;65.84;94486.56;5053652;28;20036;-74
2023/04/22 02:09:40;;;;;;;6.88;5.13;;;;;;;7.43;65.70;94490.53;5070484;28;20082;-74
2023/04/22 02:12:08;;;;;;;6.13;4.78;;;;;;;7.43;65.73;94487.94;5071814;28;20384;-74
2023/04/22 02:14:34;;;;;;;6.45;5.18;;;;;;;7.34;65.91;94489.47;5072223;28;20033;-74
2023/04/22 02:17:01;;;;;;;9.40;5.30;;;;;;;7.33;66.49;94497.34;5073548;28;20039;-73
2023/04/22 02:19:27;;;;;;;7.72;5.55;;;;;;;7.35;65.88;94492.88;5072088;28;20062;-74
2023/04/22 02:21:52;;;;;;;6.95;5.32;;;;;;;7.35;65.65;94495.47;5072088;28;20052;-73
2023/04/22 02:24:18;;;;;;;6.00;4.88;;;;;;;7.27;65.47;94488.31;5072059;28;20032;-74
2023/04/22 02:26:43;;;;;;;7.65;5.07;;;;;;;7.03;66.48;94490.94;5073372;28;20024;-73
2023/04/22 02:29:09;;;;;;;5.60;4.80;;;;;;;7.04;66.78;94489.19;5071874;28;20044;-73
2023/04/22 02:31:34;;;;;;;8.95;5.43;;;;;;;6.98;67.14;94487.06;5062571;28;20036;-75
2023/04/22 02:34:00;;;;;;;5.85;5.18;;;;;;;6.95;67.70;94482.94;5051842;28;20029;-73
2023/04/22 02:36:26;;;;;;;7.25;5.53;;;;;;;6.99;68.10;94484.34;5051763;28;20029;-74
2023/04/22 02:38:52;;;;;;;6.13;5.13;;;;;;;7.08;67.66;94478.50;5053910;28;20396;-74
2023/04/22 02:41:17;;;;;;;8.35;5.90;;;;;;;7.17;67.55;94492.50;5060395;28;20044;-73
2023/04/22 02:43:45;;;;;;;7.53;5.43;;;;;;;7.16;67.55;94485.69;5070499;28;20032;-73
2023/04/22 02:46:11;;;;;;;6.30;4.95;;;;;;;7.05;67.59;94478.75;5055062;28;20109;-73
2023/04/22 02:48:37;;;;;;;6.40;4.80;;;;;;;7.11;67.63;94488.63;5036862;28;20124;-73
2023/04/22 02:51:03;;;;;;;7.40;5.32;;;;;;;7.23;67.31;94493.81;5071313;28;20029;-73
2023/04/22 02:53:29;;;;;;;7.05;5.63;;;;;;;7.22;67.35;94512.84;5071405;28;20123;-74
2023/04/22 02:55:55;;;;;;;6.40;5.05;;;;;;;7.04;67.52;94510.66;5068714;28;20032;-73
2023/04/22 02:58:21;;;;;;;6.45;5.32;;;;;;;7.00;67.47;94501.50;5034804;28;20052;-73
2023/04/22 03:00:46;;;;;;;9.25;5.65;;;;;;;7.08;67.35;94498.38;5034520;28;20503;-73
2023/04/22 03:03:12;;;;;;;7.88;5.20;;;;;;;7.01;67.59;94508.31;5051298;28;20115;-73
2023/04/22 03:05:37;;;;;;;8.73;5.80;;;;;;;6.89;67.36;94496.31;5060540;28;20039;-73
2023/04/22 03:08:03;;;;;;;7.35;5.88;;;;;;;6.92;67.69;94516.72;5071133;28;20048;-73
2023/04/22 03:10:28;;;;;;;9.68;5.43;;;;;;;6.93;67.63;94515.78;5072332;28;20032;-73
2023/04/22 03:12:54;;;;;;;7.38;5.57;;;;;;;6.74;68.06;94497.41;5070336;28;20029;-73
2023/04/22 03:15:19;;;;;;;6.28;5.55;;;;;;;6.80;67.91;94517.59;5071204;28;20033;-73
2023/04/22 03:17:45;;;;;;;8.63;6.35;;;;;;;6.69;68.38;94511.47;5071128;28;20028;-73
2023/04/22 03:20:11;;;;;;;9.77;6.47;;;;;;;6.69;68.67;94519.22;5050188;28;20521;-73
2023/04/22 03:22:36;;;;;;;6.97;5.50;;;;;;;6.70;68.23;94518.28;5051098;28;20521;-73
2023/04/22 03:25:02;;;;;;;7.68;5.57;;;;;;;6.52;68.93;94503.28;5034195;28;20124;-73
2023/04/22 03:27:27;;;;;;;7.53;5.47;;;;;;;6.61;68.83;94521.53;5034417;28;20039;-73
2023/04/22 03:29:53;;;;;;;7.90;6.22;;;;;;;6.61;68.86;94520.72;5052113;28;20025;-74
2023/04/22 03:32:18;;;;;;;8.65;5.75;;;;;;;6.49;69.14;94517.22;5050665;28;20040;-74
2023/04/22 03:34:44;;;;;;;6.47;5.63;;;;;;;6.39;69.52;94511.91;5064675;28;20029;-74
2023/04/22 03:37:10;;;;;;;8.32;5.72;;;;;;;6.54;69.35;94524.66;5070630;28;20082;-74
2023/04/22 03:39:35;;;;;;;8.13;5.88;;;;;;;6.53;69.10;94529.00;5071752;28;20064;-74
2023/04/22 03:42:01;;;;;;;7.25;6.15;;;;;;;6.57;69.14;94533.00;5057114;28;20514;-74
2023/04/22 03:44:26;;;;;;;8.35;5.82;;;;;;;6.53;69.05;94523.84;5069915;28;20510;-73
2023/04/22 03:46:52;;;;;;;7.40;5.65;;;;;;;6.41;69.58;94532.47;5070436;28;20037;-73
2023/04/22 03:49:17;;;;;;;8.57;6.82;;;;;;;6.37;69.55;94515.53;5069492;28;20037;-73
2023/04/22 03:51:42;;;;;;;8.80;6.10;;;;;;;6.39;69.80;94536.91;5048011;28;20487;-73
2023/04/22 03:54:08;;;;;;;7.68;6.15;;;;;;;6.48;69.57;94542.22;5037274;28;20484;-73
2023/04/22 03:56:33;;;;;;;8.73;6.47;;;;;;;6.19;69.81;94515.91;5060148;28;20392;-74
2023/04/22 03:58:59;;;;;;;9.27;6.93;;;;;;;6.04;70.21;94493.75;5056576;28;20028;-73
2023/04/22 04:01:24;;;;;;;8.48;6.22;;;;;;;6.32;69.71;94541.66;5054781;28;20056;-73
2023/04/22 04:03:50;;;;;;;7.53;6.28;;;;;;;6.26;70.18;94542.91;5098157;28;20020;-74
2023/04/22 04:06:15;;;;;;;6.80;6.10;;;;;;;6.23;70.29;94548.28;5067331;28;20036;-74
2023/04/22 04:08:40;;;;;;;7.88;6.43;;;;;;;6.20;70.25;94542.53;5064045;28;20027;-74
2023/04/22 04:11:08;;;;;;;7.68;6.00;;;;;;;6.22;70.20;94536.34;5069039;28;20037;-74
2023/04/22 04:13:33;;;;;;;7.18;6.00;;;;;;;6.22;70.49;94545.84;5066255;28;20036;-74
2023/04/22 04:15:59;;;;;;;7.50;6.03;;;;;;;6.05;70.35;94513.47;5070488;28;20025;-74
2023/04/22 04:18:25;;;;;;;9.32;6.40;;;;;;;6.32;70.37;94540.84;5084297;28;20031;-75
2023/04/22 04:20:50;;;;;;;8.77;6.60;;;;;;;6.32;70.29;94540.84;5064348;28;20034;-73
2023/04/22 04:23:16;;;;;;;7.57;6.75;;;;;;;6.37;70.12;94526.69;5086134;28;20032;-73
2023/04/22 04:25:42;;;;;;;8.70;5.80;;;;;;;6.72;69.33;94539.66;5064621;28;20021;-74
2023/04/22 04:28:10;;;;;;;7.72;6.40;;;;;;;7.32;67.38;94547.38;5033124;28;20522;-74
2023/04/22 04:30:35;;;;;;;8.30;6.13;;;;;;;7.71;66.18;94553.09;5066238;28;20078;-74
2023/04/22 04:33:05;;;;;;;8.63;6.38;;;;;;;8.34;63.82;94551.66;5069262;28;20036;-74
2023/04/22 04:35:34;;;;;;;7.47;5.85;;;;;;;8.81;61.71;94538.53;5067972;28;20020;-74
2023/04/22 04:38:01;;;;;;;6.72;5.63;;;;;;;9.72;59.61;94556.13;5089872;28;20031;-75
2023/04/22 04:40:28;;;;;;;6.30;5.45;;;;;;;10.67;56.75;94548.03;5061812;28;20443;-75
2023/04/22 04:42:54;;;;;;;7.38;5.50;;;;;;;11.38;54.69;94557.38;5085562;28;20072;-75
2023/04/22 04:45:21;;;;;;;6.20;5.60;;;;;;;11.99;52.78;94562.22;5078209;28;20024;-75
2023/04/22 04:47:49;;;;;;;7.30;5.70;;;;;;;12.27;51.82;94570.06;5066823;28;20679;-75
2023/04/22 04:50:15;;;;;;;8.57;5.97;;;;;;;12.93;49.94;94567.25;5078726;28;20178;-75
2023/04/22 04:52:40;;;;;;;5.60;5.10;;;;;;;14.24;47.38;94573.53;5080608;28;20414;-75
2023/04/22 04:55:21;;;;;;;6.65;5.40;;;;;;;15.45;44.68;94572.47;5074191;28;20058;-76
2023/04/22 04:57:47;;;;;;;5.78;5.18;;;;;;;15.98;43.04;94573.78;5080112;28;20032;-75
2023/04/22 05:00:13;;;;;;;5.63;4.82;;;;;;;16.67;41.33;94580.16;5068357;28;20044;-75
2023/04/22 05:02:39;;;;;;;6.82;5.13;;;;;;;15.89;42.02;94575.59;5068727;28;20060;-75
2023/04/22 05:05:05;;;;;;;5.82;5.25;;;;;;;17.09;39.86;94578.19;5068649;28;20021;-75
2023/04/22 05:07:30;;;;;;;6.80;5.70;;;;;;;17.74;38.90;94587.44;5052615;28;20167;-75
2023/04/22 05:09:56;;;;;;;12.40;6.50;;;;;;;17.53;39.48;94582.84;5065478;28;20103;-74
2023/04/22 05:12:21;;;;;;;8.85;6.32;;;;;;;17.24;40.05;94586.94;5070287;28;20422;-75
2023/04/22 05:14:47;;;;;;;9.05;6.68;;;;;;;15.91;42.28;94581.50;5071649;28;20464;-75
2023/04/22 05:17:13;;;;;;;8.45;6.00;;;;;;;15.09;43.89;94578.78;5072885;28;20039;-75
2023/04/22 05:19:38;;;;;;;9.07;6.07;;;;;;;14.74;44.66;94585.88;5066450;28;20556;-74
2023/04/22 05:22:04;;;;;;;8.18;6.13;;;;;;;14.37;45.84;94578.31;5072963;28;20028;-74
2023/04/22 05:24:29;;;;;;;8.10;6.40;;;;;;;14.23;46.19;94584.94;5055236;28;20028;-74
2023/04/22 05:26:56;;;;;;;10.93;9.10;;;;;;;14.08;47.03;94579.47;5070936;28;20029;-74
2023/04/22 05:29:21;;;;;;;10.32;7.70;;;;;;;14.04;47.20;94590.38;5070727;28;20063;-75
2023/04/22 05:31:47;;;;;;;8.82;6.85;;;;;;;13.88;47.65;94583.28;5068061;28;20432;-75
2023/04/22 05:34:12;;;;;;;8.25;7.40;;;;;;;13.62;48.72;94588.44;5065109;28;20032;-74
2023/04/22 05:36:38;;;;;;;8.80;7.32;;;;;;;13.51;48.80;94591.28;5070479;28;20036;-74
2023/04/22 05:39:03;;;;;;;9.45;7.53;;;;;;;13.47;49.14;94595.19;5069524;28;20056;-75
2023/04/22 05:41:29;;;;;;;13.57;7.45;;;;;;;13.34;49.62;94591.13;5067815;28;20075;-75
2023/04/22 05:43:54;;;;;;;9.27;7.50;;;;;;;13.43;49.68;94588.59;5068867;28;20024;-74
2023/04/22 05:46:20;;;;;;;9.75;7.97;;;;;;;13.18;49.82;94586.56;5072249;28;20044;-77
2023/04/22 05:48:45;;;;;;;10.15;8.15;;;;;;;13.32;49.73;94592.28;5051117;28;20482;-74
2023/04/22 05:51:10;;;;;;;12.80;8.40;;;;;;;13.08;50.14;94588.41;5068659;28;20497;-74
2023/04/22 05:53:36;;;;;;;8.73;7.43;;;;;;;13.08;50.46;94574.56;5072818;28;20268;-74
2023/04/22 05:56:01;;;;;;;8.43;6.68;;;;;;;13.41;49.94;94586.16;5054077;28;20406;-75
2023/04/22 05:58:27;;;;;;;9.98;6.53;;;;;;;13.60;49.54;94591.22;5073346;28;20410;-75
2023/04/22 06:00:52;;;;;;;8.05;6.82;;;;;;;13.80;49.32;94581.41;5070404;28;20048;-74
2023/04/22 06:03:18;;;;;;;8.73;7.60;;;;;;;13.88;49.04;94570.22;5073317;28;20506;-73
2023/04/22 06:05:43;;;;;;;9.63;7.38;;;;;;;14.11;48.92;94569.69;5044183;28;20410;-73
2023/04/22 06:08:09;;;;;;;8.75;7.35;;;;;;;14.27;48.26;94573.22;5053078;28;20039;-73
2023/04/22 06:10:34;;;;;;;13.50;8.88;;;;;;;14.11;48.22;94574.94;5057558;28;20039;-74
2023/04/22 06:13:00;;;;;;;13.23;9.27;;;;;;;14.08;48.35;94581.28;5053370;28;20029;-73
2023/04/22 06:15:25;;;;;;;13.23;9.95;;;;;;;13.84;48.82;94581.91;5067223;28;20032;-74
2023/04/22 06:17:51;;;;;;;13.50;9.15;;;;;;;13.86;49.90;94588.63;5079263;28;20073;-73
2023/04/22 06:20:16;;;;;;;13.73;9.80;;;;;;;14.00;49.41;94581.22;5062438;28;20028;-74
2023/04/22 06:22:42;;;;;;;10.68;8.77;;;;;;;14.12;49.12;94581.78;5071756;28;20025;-73
2023/04/22 06:25:07;;;;;;;11.40;8.43;;;;;;;14.21;49.21;94584.28;5070914;28;20036;-74
2023/04/22 06:27:33;;;;;;;10.68;9.10;;;;;;;14.33;48.63;94589.25;5071404;28;20033;-74
2023/04/22 06:29:58;;;;;;;11.20;8.35;;;;;;;14.30;48.25;94578.13;5063010;28;20031;-74
2023/04/22 06:32:24;;;;;;;10.85;8.30;;;;;;;14.43;48.32;94587.31;5049039;28;20033;-77
2023/04/22 06:34:49;;;;;;;13.57;10.52;;;;;;;14.54;47.88;94589.69;5044373;28;20055;-75
2023/04/22 06:37:15;;;;;;;10.52;8.60;;;;;;;14.71;47.43;94601.88;5056308;28;20125;-73
2023/04/22 06:39:40;;;;;;;10.25;8.07;;;;;;;14.77;47.66;94595.22;5063615;28;20025;-74
2023/04/22 06:42:06;;;;;;;10.95;8.80;;;;;;;14.87;46.79;94595.06;5060397;28;20040;-76
2023/04/22 06:44:32;;;;;;;12.43;9.05;;;;;;;14.94;46.94;94594.28;5056089;28;20024;-75
2023/04/22 06:46:57;;;;;;;11.80;8.80;;;;;;;15.09;46.60;94593.66;5064185;28;20045;-75
2023/04/22 06:49:22;;;;;;;12.30;8.57;;;;;;;15.17;46.32;94598.91;5029513;28;20066;-75
2023/04/22 06:51:48;;;;;;;16.27;9.30;;;;;;;15.26;45.92;94590.09;5064346;28;20045;-77
2023/04/22 06:54:14;;;;;;;11.15;9.05;;;;;;;15.19;46.35;94595.16;5049976;28;20039;-73
2023/04/22 06:56:42;;;;;;;13.32;8.77;;;;;;;15.20;47.00;94588.94;5048968;28;20066;-73
2023/04/22 06:59:07;;;;;;;13.13;8.65;;;;;;;15.35;46.64;94594.38;5058416;28;20037;-73
2023/04/22 07:01:33;;;;;;;11.95;8.63;;;;;;;15.52;46.46;94595.22;5076330;28;20130;-76
2023/04/22 07:03:58;;;;;;;9.45;7.28;;;;;;;15.58;45.42;94588.50;5082327;28;20024;-76
2023/04/22 07:06:24;;;;;;;9.57;7.20;;;;;;;15.72;44.84;94581.84;5084547;28;20040;-72
2023/04/22 07:08:49;;;;;;;7.97;6.45;;;;;;;15.92;44.11;94570.03;5064440;28;20024;-75
2023/04/22 07:11:15;;;;;;;8.48;6.65;;;;;;;16.03;43.63;94555.78;5075892;28;20036;-75
2023/04/22 07:13:40;;;;;;;11.02;6.93;;;;;;;16.39;43.31;94592.06;5054862;28;20070;-74
2023/04/22 07:16:06;;;;;;;11.25;7.15;;;;;;;16.31;42.90;94592.88;5055395;28;20090;-73
2023/04/22 07:18:31;;;;;;;9.73;7.28;;;;;;;16.14;43.84;94573.75;5090192;28;20028;-74
2023/04/22 07:20:57;;;;;;;9.57;7.13;;;;;;;16.42;42.63;94587.28;5057331;28;20505;-72
2023/04/22 07:23:22;;;;;;;9.13;6.47;;;;;;;16.67;42.41;94587.22;5057082;28;20021;-73
2023/04/22 07:25:48;;;;;;;9.93;8.32;;;;;;;16.83;42.54;94584.56;5057342;28;20468;-74
2023/04/22 07:28:13;;;;;;;10.60;7.43;;;;;;;17.01;41.59;94584.31;5074362;28;20035;-74
2023/04/22 07:30:39;;;;;;;12.57;7.80;;;;;;;16.74;42.10;94593.41;5070087;28;20073;-75
2023/04/22 07:33:04;;;;;;;13.52;8.63;;;;;;;16.79;41.69;94603.44;5071216;28;20506;-78
2023/04/22 07:35:30;;;;;;;8.80;6.55;;;;;;;16.23;41.95;94588.47;5084834;28;20028;-79
2023/04/22 07:37:55;;;;;;;11.80;8.43;;;;;;;16.00;43.09;94600.66;5057043;28;20504;-73
2023/04/22 07:40:21;;;;;;;7.25;5.75;;;;;;;16.28;43.20;94606.34;5090414;28;20035;-75
2023/04/22 07:42:46;;;;;;;7.57;5.70;;;;;;;16.42;42.76;94591.72;5047429;28;20048;-76
2023/04/22 07:45:12;;;;;;;9.52;5.68;;;;;;;16.42;43.11;94594.34;5086838;28;20021;-75
2023/04/22 07:47:38;;;;;;;18.38;12.10;;;;;;;16.68;42.38;94597.53;5083816;28;20051;-76
2023/04/22 07:50:04;;;;;;;10.90;6.13;;;;;;;16.46;43.29;94593.81;5072868;28;20020;-77
2023/04/22 07:52:29;;;;;;;6.55;5.32;;;;;;;16.74;42.59;94596.03;5073818;28;20040;-73
2023/04/22 07:54:55;;;;;;;6.75;5.40;;;;;;;16.90;41.88;94592.56;5084381;28;20077;-75
2023/04/22 07:57:21;;;;;;;5.75;4.45;;;;;;;15.90;42.91;94592.13;5090080;28;20032;-76
2023/04/22 07:59:47;;;;;;;9.40;5.95;;;;;;;16.06;42.06;94566.72;5077534;28;20036;-77
2023/04/22 08:02:13;;;;;;;5.07;4.18;;;;;;;16.16;41.78;94581.44;5020754;28;20048;-77
2023/04/22 08:04:38;;;;;;;6.22;5.10;;;;;;;16.43;42.50;94585.47;5029108;28;20016;-76
2023/04/22 08:07:04;;;;;;;10.77;6.00;;;;;;;16.71;41.92;94580.63;5061147;28;20036;-78
2023/04/22 08:09:29;;;;;;;9.77;6.40;;;;;;;16.67;42.32;94580.16;5086993;28;20494;-72
2023/04/22 08:11:55;;;;;;;8.50;6.18;;;;;;;16.98;41.95;94574.97;5060151;28;20040;-75
2023/04/22 08:14:21;;;;;;;13.55;10.25;;;;;;;17.14;41.63;94579.31;5054567;28;20066;-75
2023/04/22 08:16:46;;;;;;;6.85;6.00;;;;;;;17.28;41.34;94571.69;5054473;28;20099;-76
2023/04/22 08:19:11;;;;;;;8.50;5.90;;;;;;;17.60;40.72;94570.63;5054865;28;20027;-77
2023/04/22 08:21:37;;;;;;;7.43;5.38;;;;;;;17.33;41.83;94567.56;5068049;28;20513;-76
2023/04/22 08:24:03;;;;;;;9.80;5.25;;;;;;;17.12;40.75;94572.59;5079186;28;20452;-76
2023/04/22 08:26:28;;;;;;;13.02;6.10;;;;;;;17.25;41.26;94567.59;5068507;28;20493;-79
2023/04/22 08:28:54;;;;;;;6.03;5.13;;;;;;;17.09;40.51;94510.78;5035357;28;20034;-74
2023/04/22 08:31:19;;;;;;;11.02;5.90;;;;;;;17.37;40.89;94566.19;5069365;28;20115;-76
2023/04/22 08:33:45;;;;;;;21.92;6.55;;;;;;;17.35;40.66;94568.19;5043909;28;20020;-76
2023/04/22 08:36:10;;;;;;;26.05;6.50;;;;;;;17.33;40.29;94557.06;5053245;28;20086;-76
2023/04/22 08:38:36;;;;;;;10.85;5.53;;;;;;;17.25;40.71;94546.59;5052031;28;20025;-76
2023/04/22 08:41:01;;;;;;;6.93;5.57;;;;;;;17.59;40.82;94553.25;5069868;28;20094;-76
2023/04/22 08:43:27;;;;;;;20.42;5.97;;;;;;;17.55;39.89;94541.44;5066875;28;20035;-75
2023/04/22 08:45:52;;;;;;;9.80;5.70;;;;;;;17.36;41.45;94554.09;5079371;28;20051;-78
2023/04/22 08:48:18;;;;;;;10.32;5.88;;;;;;;17.20;41.60;94544.50;5048178;28;20031;-77
2023/04/22 08:50:44;;;;;;;12.43;5.90;;;;;;;17.54;41.29;94547.72;5071489;28;20456;-77
2023/04/22 08:53:09;;;;;;;14.07;6.60;;;;;;;17.72;40.25;94521.97;5089043;28;20035;-77
2023/04/22 08:55:35;;;;;;;9.73;5.20;;;;;;;17.89;39.55;94527.91;5037865;28;20035;-77
2023/04/22 08:58:03;;;;;;;6.43;5.03;;;;;;;17.94;39.39;94535.25;5054451;28;20068;-76
2023/04/22 09:00:30;;;;;;;7.80;5.32;;;;;;;17.37;39.83;94531.25;5043880;28;20020;-75
2023/04/22 09:02:56;;;;;;;11.77;5.80;;;;;;;16.99;39.97;94531.16;5051820;28;20059;-76
2023/04/22 09:05:22;;;;;;;7.72;5.22;;;;;;;17.26;40.00;94518.53;5036274;28;20028;-76
2023/04/22 09:07:47;;;;;;;8.15;5.60;;;;;;;17.61;39.53;94530.28;5019868;28;20063;-75
2023/04/22 09:10:13;;;;;;;9.25;5.60;;;;;;;17.81;39.38;94520.91;5051620;28;20028;-75
2023/04/22 09:12:39;;;;;;;9.68;5.72;;;;;;;18.04;39.32;94515.59;5072185;28;20071;-75
2023/04/22 09:15:06;;;;;;;8.98;5.72;;;;;;;18.16;38.40;94520.41;5056066;28;20031;-75
2023/04/22 09:17:32;;;;;;;9.40;6.07;;;;;;;18.20;38.78;94512.00;5043558;28;20032;-75
2023/04/22 09:20:01;;;;;;;9.52;6.07;;;;;;;18.10;37.69;94506.19;5038007;28;20029;-75
2023/04/22 09:22:27;;;;;;;8.13;5.53;;;;;;;18.32;38.59;94517.59;5036858;28;20495;-76
2023/04/22 09:24:53;;;;;;;6.55;5.80;;;;;;;18.38;37.22;94521.31;5050797;28;20115;-75
2023/04/22 09:27:19;;;;;;;9.05;6.15;;;;;;;18.21;37.11;94513.59;5081171;28;20214;-77
2023/04/22 09:29:51;;;;;;;9.73;6.18;;;;;;;17.84;37.05;94507.41;5081887;28;20290;-75
2023/04/22 09:32:17;;;;;;;8.65;5.90;;;;;;;17.98;38.37;94507.63;5038782;28;20039;-77
2023/04/22 09:34:52;;;;;;;8.90;6.20;;;;;;;18.25;36.68;94512.25;5087324;28;20028;-75
2023/04/22 09:37:23;;;;;;;9.60;5.90;;;;;;;18.41;36.88;94494.66;5052671;28;20040;-75
2023/04/22 09:39:49;;;;;;;9.10;5.18;;;;;;;18.68;35.93;94501.88;5035482;28;20039;-75
2023/04/22 09:42:18;;;;;;;10.35;5.97;;;;;;;18.66;36.70;94489.91;5033934;28;20036;-75
2023/04/22 09:44:47;;;;;;;8.15;5.25;;;;;;;18.78;34.14;94485.00;5051119;28;20052;-75
2023/04/22 09:47:13;;;;;;;8.25;5.53;;;;;;;18.35;35.10;94448.88;5017973;28;20094;-75
2023/04/22 09:49:39;;;;;;;8.70;5.35;;;;;;;18.28;34.35;94474.28;5035105;28;20037;-75
2023/04/22 09:52:04;;;;;;;10.00;5.78;;;;;;;18.41;35.44;94495.47;5034328;28;20556;-74
2023/04/22 09:54:30;;;;;;;9.20;5.45;;;;;;;18.75;35.38;94494.94;5051142;28;20024;-74
2023/04/22 09:56:55;;;;;;;10.05;5.70;;;;;;;18.74;35.34;94500.34;5050449;28;20044;-75
2023/04/22 09:59:26;;;;;;;8.10;4.90;;;;;;;18.86;34.40;94479.63;5036476;28;20017;-74
2023/04/22 10:01:54;;;;;;;8.23;5.10;;;;;;;18.82;34.47;94481.03;5053859;28;20099;-75
2023/04/22 10:04:23;;;;;;;7.13;5.18;;;;;;;18.75;34.77;94487.03;5052554;28;20039;-75
2023/04/22 10:06:49;;;;;;;9.95;4.90;;;;;;;18.69;34.36;94485.13;5090219;28;20031;-75
2023/04/22 10:09:19;;;;;;;8.20;5.20;;;;;;;18.72;35.19;94497.91;5072186;28;20028;-75
2023/04/22 10:11:44;;;;;;;13.33;3.53;;;;;;;18.27;35.42;94494.47;5039698;28;20559;-75
2023/04/22 10:14:12;;;;;;;8.15;3.20;;;;;;;17.85;36.71;94501.16;5057062;28;20274;-74
2023/04/22 10:16:38;;;;;;;9.45;3.55;;;;;;;16.94;37.41;94497.59;5073907;28;20408;-74
2023/04/22 10:19:04;;;;;;;13.32;5.30;;;;;;;17.15;36.21;94514.50;5058236;28;20028;-75
2023/04/22 10:21:30;;;;;;;5.53;2.97;;;;;;;16.84;35.55;94522.41;5042608;28;20044;-76
2023/04/22 10:23:57;;;;;;;7.18;2.60;;;;;;;16.84;35.81;94486.50;5042007;28;20181;-76
2023/04/22 10:26:42;;;;;;;5.20;2.60;;;;;;;17.12;35.73;94509.63;5075443;28;20100;-76
2023/04/22 10:29:09;;;;;;;3.78;2.00;;;;;;;17.13;35.32;94482.38;5075310;28;20031;-76
2023/04/22 10:31:38;;;;;;;3.10;1.80;;;;;;;17.21;34.44;94477.06;5059159;28;20048;-76
2023/04/22 10:34:11;;;;;;;2.95;2.10;;;;;;;17.30;34.55;94512.78;5042104;28;20016;-76
2023/04/22 10:36:57;;;;;;;3.90;2.30;;;;;;;17.39;34.48;94505.66;5058865;28;20050;-76
2023/04/22 10:39:22;;;;;;;8.15;2.00;;;;;;;17.47;34.94;94491.63;5075291;28;20073;-77
2023/04/22 10:42:10;;;;;;;5.30;2.60;;;;;;;17.49;34.99;94487.03;5058689;28;20086;-76
2023/04/22 10:44:46;;;;;;;6.57;2.58;;;;;;;17.62;34.90;94490.69;5044330;28;20127;-76
2023/04/22 10:47:23;;;;;;;5.03;2.20;;;;;;;17.60;34.08;94494.47;5075221;28;20036;-76
2023/04/22 10:49:50;;;;;;;4.70;1.98;;;;;;;17.57;34.90;94493.00;5043004;28;20036;-76
2023/04/22 10:52:27;;;;;;;3.92;2.20;;;;;;;17.47;33.50;94476.72;5041749;28;20028;-76
2023/04/22 10:54:52;;;;;;;4.43;2.28;;;;;;;17.65;33.85;94489.50;5058783;28;20504;-76
2023/04/22 10:57:18;;;;;;;4.55;2.75;;;;;;;17.73;33.93;94491.25;5074977;28;20036;-76
2023/04/22 11:00:26;;;;;;;5.50;3.00;;;;;;;17.76;33.69;94475.94;5075166;28;20043;-76
2023/04/22 11:03:04;;;;;;;3.75;2.80;;;;;;;17.82;34.52;94493.63;5074296;28;20048;-76
2023/04/22 11:05:29;;;;;;;3.83;2.50;;;;;;;17.79;33.79;94480.06;5093558;28;20053;-75
2023/04/22 11:07:55;;;;;;;7.15;2.92;;;;;;;17.01;33.63;94473.28;5058370;28;20452;-76
2023/04/22 11:10:42;;;;;;;4.30;2.88;;;;;;;17.05;34.84;94485.91;5040501;28;20119;-76
2023/04/22 11:13:19;;;;;;;6.93;2.97;;;;;;;16.82;34.69;94488.47;5074652;28;20043;-76
2023/04/22 11:15:48;;;;;;;4.45;3.05;;;;;;;16.13;35.03;94437.66;5077295;28;20021;-76
2023/04/22 11:18:19;;;;;;;6.93;3.30;;;;;;;16.25;35.79;94452.03;5074801;28;20098;-76
2023/04/22 11:20:47;;;;;;;5.07;3.78;;;;;;;16.04;36.36;94492.72;5075667;28;20062;-76
2023/04/22 11:23:16;;;;;;;4.93;3.63;;;;;;;16.47;36.41;94480.13;5041913;28;20093;-76
2023/04/22 11:25:41;;;;;;;5.40;3.35;;;;;;;16.77;35.25;94480.34;5092621;28;20020;-76
2023/04/22 11:28:07;;;;;;;4.97;2.30;;;;;;;16.54;33.30;94470.56;5074813;28;20460;-76
2023/04/22 11:30:32;;;;;;;3.97;2.58;;;;;;;16.12;33.50;94455.19;5058169;28;20046;-76